大阪空港の過去48時間の天気

大阪空港 (Osaka/Intl)

現在時刻: 7/17 18:32 JST (7/17 09:32 UTC) 以下の時間は現地時間です。

過去48時間のMETAR気象情報
時間 風向 風速(m/s) 視程 気温(℃) 湿度(%) 気圧(hPa) 天気現象
17 18:00 南西 3 10km以上 32 52 1009
17 17:00 南西 4 10km以上 34 50 1009
17 16:00 南西 5 10km以上 35 47 1009
17 15:00 西南西 4 10km以上 35 47 1010
17 14:00 南西 4 10km以上 35 47 1010
17 13:24 南南西 3 10km以上 36 44 1010
17 13:00 南西 3 10km以上 34 50 1010
17 12:00 南南西 3 10km以上 35 47 1011
17 11:40 3 10km以上 35 47 1011
17 11:00 不定 2 10km以上 33 53 1012
17 10:47 不定 2 10km以上 34 50 1012
17 10:00 南南西 2 9000m 32 56 1012
17 09:00 南南西 2 9000m 31 62 1012
17 08:00 2 10km以上 30 62 1013
17 07:00 南西 2 10km以上 29 66 1013
17 06:00 南西 2 10km以上 28 66 1012
17 05:00 不定 1 10km以上 27 74 1012
16 20:00 南西 4 10km以上 30 59 1011
16 19:00 南西 4 10km以上 31 55 1010
16 18:00 南西 3 10km以上 32 56 1010
16 17:00 南南西 4 10km以上 35 44 1009
16 16:00 南西 3 10km以上 37 42 1009
16 15:00 西南西 3 10km以上 36 44 1010
16 14:00 西南西 2 10km以上 36 42 1011
16 13:00 南西 3 10km以上 35 44 1011
16 12:00 不定 2 10km以上 35 44 1011
16 11:00 不定 2 10km以上 34 50 1012
16 10:00 不定 1 10km以上 33 53 1013
16 09:00 西 2 10km以上 31 59 1013
16 08:00 西南西 2 10km以上 30 59 1013
16 07:00 不定 1 10km以上 28 66 1013
16 06:00 西北西 2 10km以上 27 74 1013
16 05:00 北西 2 10km以上 27 74 1012
RJOO 170900Z 22006KT 160V300 9999 FEW035 BKN/// 32/21 Q1009 RMK 1CU035 A2982
RJOO 170800Z 23007KT 170V260 9999 FEW035 BKN/// 34/22 Q1009 RMK 1CU035 A2982
RJOO 170700Z 23009KT 170V260 9999 FEW035 BKN/// 35/22 Q1009
RJOO 170600Z 24008KT 200V270 9999 FEW035 BKN/// 35/22 Q1010
RJOO 170500Z 23007KT 160V250 9999 FEW035 BKN/// 35/22 Q1010 RMK 1CU035 A2983
RJOO 170424Z 21006KT 150V270 9999 FEW035 BKN/// 36/22 Q1010 RMK 1CU035 A2984
RJOO 170400Z 22006KT 180V280 9999 FEW035 BKN/// 34/22 Q1010 RMK 1CU035 A2985
RJOO 170300Z 21005KT 160V260 9999 FEW035 BKN/// 35/22 Q1011 RMK 1CU035 A2987
RJOO 170240Z VRB05KT 9999 FEW035 BKN/// 35/22 Q1011 RMK 1CU035 A2987
RJOO 170200Z VRB04KT 9999 FEW035 BKN/// 33/22 Q1012 RMK 1CU035 A2988
RJOO 170147Z VRB04KT 9999 FEW035 BKN/// 34/22 Q1012 RMK 1CU035 A2989
RJOO 170100Z 20004KT 120V260 9000 FEW035 BKN/// 32/22 Q1012 RMK 1CU035 A2990
RJOO 170000Z 21004KT 140V260 9000 FEW040 BKN/// 31/23 Q1012 RMK 1CU040 A2991
RJOO 162300Z 19003KT 140V290 CAVOK 30/22 Q1013 RMK A2991
RJOO 162200Z 23003KT 180V270 CAVOK 29/22 Q1013 RMK A2991
RJOO 162100Z 23004KT CAVOK 28/21 Q1012 RMK A2991
RJOO 162000Z VRB01KT CAVOK 27/22 Q1012 RMK A2990
RJOO 161100Z 23007KT 190V250 9999 FEW040 BKN/// 30/21 Q1011
RJOO 161000Z 23008KT 190V270 9999 FEW040 BKN/// 31/21 Q1010 RMK 1CU040 A2985
RJOO 160900Z 22005KT 160V250 9999 FEW030 SCT/// 32/22 Q1010 RMK 1CU030 A2983
RJOO 160800Z 21007KT 150V240 9999 FEW030 SCT/// 35/21 Q1009 RMK 1CU030 A2982
RJOO 160700Z 22005KT 150V260 9999 FEW030 BKN/// 37/22 Q1009 RMK 1CU030 A2982
RJOO 160600Z 24006KT 210V290 9999 FEW030 BKN/// 36/22 Q1010
RJOO 160500Z 24004KT 170V280 9999 FEW030 BKN/// 36/21 Q1011
RJOO 160400Z 23005KT 180V280 9999 FEW030 BKN/// 35/21 Q1011 RMK 1CU030 A2987
RJOO 160300Z VRB04KT 9999 FEW030 SCT/// 35/21 Q1011 RMK 1CU030 A2987
RJOO 160200Z VRB04KT 9999 FEW030 34/22 Q1012 RMK 1CU030 A2990
RJOO 160100Z VRB01KT 9999 FEW035 33/22 Q1013 RMK 1CU035 A2992
RJOO 160000Z 26004KT 210V330 CAVOK 31/22 Q1013 RMK A2992
RJOO 152300Z 25004KT 210V310 CAVOK 30/21 Q1013 RMK A2992
RJOO 152200Z VRB02KT CAVOK 28/21 Q1013 RMK A2992
RJOO 152100Z 30003KT CAVOK 27/22 Q1013 RMK A2991
RJOO 152000Z 31004KT CAVOK 27/22 Q1012 RMK A2990